sensor_id;sensor_type;location;lat;lon;timestamp;P1;durP1;ratioP1;P2;durP2;ratioP2
25615;SDS011;13482;48.234;13.006;2023-05-06T00:01:27;2.25;;;0.70;;
25615;SDS011;13482;48.234;13.006;2023-05-06T00:03:54;1.00;;;0.50;;
25615;SDS011;13482;48.234;13.006;2023-05-06T00:06:21;1.85;;;0.60;;
25615;SDS011;13482;48.234;13.006;2023-05-06T00:08:48;0.88;;;0.60;;
25615;SDS011;13482;48.234;13.006;2023-05-06T00:11:16;0.70;;;0.50;;
25615;SDS011;13482;48.234;13.006;2023-05-06T00:13:43;1.85;;;0.70;;
25615;SDS011;13482;48.234;13.006;2023-05-06T00:16:10;1.40;;;0.70;;
25615;SDS011;13482;48.234;13.006;2023-05-06T00:18:37;1.55;;;0.85;;
25615;SDS011;13482;48.234;13.006;2023-05-06T00:21:04;2.53;;;0.70;;
25615;SDS011;13482;48.234;13.006;2023-05-06T00:23:31;1.80;;;0.70;;
25615;SDS011;13482;48.234;13.006;2023-05-06T00:25:58;0.85;;;0.50;;
25615;SDS011;13482;48.234;13.006;2023-05-06T00:28:25;1.13;;;0.50;;
25615;SDS011;13482;48.234;13.006;2023-05-06T00:30:52;1.65;;;0.60;;
25615;SDS011;13482;48.234;13.006;2023-05-06T00:33:20;1.83;;;0.70;;
25615;SDS011;13482;48.234;13.006;2023-05-06T00:35:47;1.58;;;0.60;;
25615;SDS011;13482;48.234;13.006;2023-05-06T00:38:14;1.17;;;0.60;;
25615;SDS011;13482;48.234;13.006;2023-05-06T00:40:42;1.38;;;0.50;;
25615;SDS011;13482;48.234;13.006;2023-05-06T00:43:09;1.27;;;0.70;;
25615;SDS011;13482;48.234;13.006;2023-05-06T00:45:37;2.25;;;0.60;;
25615;SDS011;13482;48.234;13.006;2023-05-06T00:48:04;3.15;;;0.65;;
25615;SDS011;13482;48.234;13.006;2023-05-06T00:50:33;0.85;;;0.47;;
25615;SDS011;13482;48.234;13.006;2023-05-06T00:53:02;1.38;;;0.60;;
25615;SDS011;13482;48.234;13.006;2023-05-06T00:55:30;1.60;;;0.80;;
25615;SDS011;13482;48.234;13.006;2023-05-06T00:57:57;1.30;;;0.50;;
25615;SDS011;13482;48.234;13.006;2023-05-06T01:00:25;0.50;;;0.40;;
25615;SDS011;13482;48.234;13.006;2023-05-06T01:02:52;1.90;;;0.52;;
25615;SDS011;13482;48.234;13.006;2023-05-06T01:05:20;1.45;;;0.60;;
25615;SDS011;13482;48.234;13.006;2023-05-06T01:16:13;1.83;;;0.70;;
25615;SDS011;13482;48.234;13.006;2023-05-06T01:18:45;1.38;;;0.65;;
25615;SDS011;13482;48.234;13.006;2023-05-06T01:21:16;1.33;;;0.70;;
25615;SDS011;13482;48.234;13.006;2023-05-06T01:23:54;1.50;;;0.60;;
25615;SDS011;13482;48.234;13.006;2023-05-06T01:26:23;1.30;;;0.68;;
25615;SDS011;13482;48.234;13.006;2023-05-06T01:28:54;1.45;;;0.80;;
25615;SDS011;13482;48.234;13.006;2023-05-06T01:31:24;1.73;;;0.80;;
25615;SDS011;13482;48.234;13.006;2023-05-06T01:39:49;0.90;;;0.50;;
25615;SDS011;13482;48.234;13.006;2023-05-06T01:42:20;1.15;;;0.70;;
25615;SDS011;13482;48.234;13.006;2023-05-06T01:44:49;1.58;;;0.77;;
25615;SDS011;13482;48.234;13.006;2023-05-06T01:47:18;1.23;;;0.60;;
25615;SDS011;13482;48.234;13.006;2023-05-06T01:49:46;1.40;;;0.80;;
25615;SDS011;13482;48.234;13.006;2023-05-06T01:52:16;1.35;;;0.55;;
25615;SDS011;13482;48.234;13.006;2023-05-06T01:54:43;1.42;;;0.70;;
25615;SDS011;13482;48.234;13.006;2023-05-06T01:57:10;2.05;;;0.90;;
25615;SDS011;13482;48.234;13.006;2023-05-06T01:59:37;1.23;;;0.60;;
25615;SDS011;13482;48.234;13.006;2023-05-06T02:02:04;2.25;;;0.70;;
25615;SDS011;13482;48.234;13.006;2023-05-06T02:04:32;1.02;;;0.52;;
25615;SDS011;13482;48.234;13.006;2023-05-06T02:06:59;0.90;;;0.50;;
25615;SDS011;13482;48.234;13.006;2023-05-06T02:09:26;1.40;;;0.75;;
25615;SDS011;13482;48.234;13.006;2023-05-06T02:11:53;0.75;;;0.52;;
25615;SDS011;13482;48.234;13.006;2023-05-06T02:14:20;1.35;;;0.65;;
25615;SDS011;13482;48.234;13.006;2023-05-06T02:16:47;1.13;;;0.60;;
25615;SDS011;13482;48.234;13.006;2023-05-06T02:19:16;2.33;;;0.80;;
25615;SDS011;13482;48.234;13.006;2023-05-06T02:21:43;1.20;;;0.70;;
25615;SDS011;13482;48.234;13.006;2023-05-06T02:24:10;1.15;;;0.60;;
25615;SDS011;13482;48.234;13.006;2023-05-06T02:26:37;1.30;;;0.70;;
25615;SDS011;13482;48.234;13.006;2023-05-06T02:29:04;1.20;;;0.70;;
25615;SDS011;13482;48.234;13.006;2023-05-06T02:31:32;1.30;;;0.63;;
25615;SDS011;13482;48.234;13.006;2023-05-06T02:34:00;1.38;;;0.57;;
25615;SDS011;13482;48.234;13.006;2023-05-06T02:36:28;1.42;;;0.60;;
25615;SDS011;13482;48.234;13.006;2023-05-06T02:38:55;0.82;;;0.50;;
25615;SDS011;13482;48.234;13.006;2023-05-06T02:41:22;1.27;;;0.80;;
25615;SDS011;13482;48.234;13.006;2023-05-06T02:43:49;1.35;;;0.57;;
25615;SDS011;13482;48.234;13.006;2023-05-06T02:46:16;2.28;;;0.68;;
25615;SDS011;13482;48.234;13.006;2023-05-06T02:48:43;0.52;;;0.50;;
25615;SDS011;13482;48.234;13.006;2023-05-06T02:51:11;0.70;;;0.57;;
25615;SDS011;13482;48.234;13.006;2023-05-06T02:53:38;0.82;;;0.50;;
25615;SDS011;13482;48.234;13.006;2023-05-06T02:56:05;1.23;;;0.60;;
25615;SDS011;13482;48.234;13.006;2023-05-06T02:58:33;1.48;;;0.80;;
25615;SDS011;13482;48.234;13.006;2023-05-06T03:01:00;1.10;;;0.73;;
25615;SDS011;13482;48.234;13.006;2023-05-06T03:03:27;1.40;;;0.98;;
25615;SDS011;13482;48.234;13.006;2023-05-06T03:05:54;1.52;;;0.80;;
25615;SDS011;13482;48.234;13.006;2023-05-06T03:08:21;1.30;;;0.82;;
25615;SDS011;13482;48.234;13.006;2023-05-06T03:10:50;1.50;;;0.88;;
25615;SDS011;13482;48.234;13.006;2023-05-06T03:13:17;1.10;;;0.77;;
25615;SDS011;13482;48.234;13.006;2023-05-06T03:15:49;2.13;;;0.75;;
25615;SDS011;13482;48.234;13.006;2023-05-06T03:18:19;1.27;;;0.80;;
25615;SDS011;13482;48.234;13.006;2023-05-06T03:20:46;1.00;;;0.65;;
25615;SDS011;13482;48.234;13.006;2023-05-06T03:23:14;0.85;;;0.50;;
25615;SDS011;13482;48.234;13.006;2023-05-06T03:25:41;1.20;;;0.70;;
25615;SDS011;13482;48.234;13.006;2023-05-06T03:28:09;1.40;;;0.60;;
25615;SDS011;13482;48.234;13.006;2023-05-06T03:30:37;0.95;;;0.65;;
25615;SDS011;13482;48.234;13.006;2023-05-06T03:33:05;1.20;;;0.52;;
25615;SDS011;13482;48.234;13.006;2023-05-06T03:35:32;1.58;;;0.80;;
25615;SDS011;13482;48.234;13.006;2023-05-06T03:37:59;1.38;;;0.70;;
25615;SDS011;13482;48.234;13.006;2023-05-06T03:40:26;1.05;;;0.70;;
25615;SDS011;13482;48.234;13.006;2023-05-06T03:42:53;1.20;;;0.80;;
25615;SDS011;13482;48.234;13.006;2023-05-06T03:45:20;0.77;;;0.60;;
25615;SDS011;13482;48.234;13.006;2023-05-06T03:47:47;1.23;;;0.77;;
25615;SDS011;13482;48.234;13.006;2023-05-06T03:50:15;1.38;;;0.85;;
25615;SDS011;13482;48.234;13.006;2023-05-06T03:52:42;1.30;;;0.63;;
25615;SDS011;13482;48.234;13.006;2023-05-06T03:55:09;1.08;;;0.68;;
25615;SDS011;13482;48.234;13.006;2023-05-06T03:57:37;1.75;;;0.60;;
25615;SDS011;13482;48.234;13.006;2023-05-06T04:00:04;1.13;;;0.70;;
25615;SDS011;13482;48.234;13.006;2023-05-06T04:02:36;1.02;;;0.70;;
25615;SDS011;13482;48.234;13.006;2023-05-06T04:05:03;0.90;;;0.60;;
25615;SDS011;13482;48.234;13.006;2023-05-06T04:07:31;1.63;;;0.82;;
25615;SDS011;13482;48.234;13.006;2023-05-06T04:09:58;1.65;;;0.75;;
25615;SDS011;13482;48.234;13.006;2023-05-06T04:12:25;1.25;;;0.80;;
25615;SDS011;13482;48.234;13.006;2023-05-06T04:14:52;1.42;;;0.70;;
25615;SDS011;13482;48.234;13.006;2023-05-06T04:17:19;1.52;;;0.85;;
25615;SDS011;13482;48.234;13.006;2023-05-06T04:19:46;1.40;;;1.00;;
25615;SDS011;13482;48.234;13.006;2023-05-06T04:22:13;2.05;;;1.00;;
25615;SDS011;13482;48.234;13.006;2023-05-06T04:24:41;2.28;;;0.90;;
25615;SDS011;13482;48.234;13.006;2023-05-06T04:27:11;1.10;;;0.70;;
25615;SDS011;13482;48.234;13.006;2023-05-06T04:29:38;1.33;;;0.80;;
25615;SDS011;13482;48.234;13.006;2023-05-06T04:32:05;1.08;;;0.80;;
25615;SDS011;13482;48.234;13.006;2023-05-06T04:34:33;2.17;;;0.80;;
25615;SDS011;13482;48.234;13.006;2023-05-06T04:37:01;1.35;;;0.70;;
25615;SDS011;13482;48.234;13.006;2023-05-06T04:39:28;2.97;;;0.82;;
25615;SDS011;13482;48.234;13.006;2023-05-06T04:41:57;0.95;;;0.70;;
25615;SDS011;13482;48.234;13.006;2023-05-06T04:44:24;1.50;;;1.00;;
25615;SDS011;13482;48.234;13.006;2023-05-06T04:46:51;0.90;;;0.80;;
25615;SDS011;13482;48.234;13.006;2023-05-06T04:49:18;1.17;;;0.80;;
25615;SDS011;13482;48.234;13.006;2023-05-06T04:51:46;4.70;;;0.98;;
25615;SDS011;13482;48.234;13.006;2023-05-06T04:54:13;1.60;;;1.00;;
25615;SDS011;13482;48.234;13.006;2023-05-06T04:56:40;1.23;;;0.80;;
25615;SDS011;13482;48.234;13.006;2023-05-06T04:59:07;1.23;;;1.00;;
25615;SDS011;13482;48.234;13.006;2023-05-06T05:01:34;1.38;;;0.80;;
25615;SDS011;13482;48.234;13.006;2023-05-06T05:04:01;2.55;;;0.98;;
25615;SDS011;13482;48.234;13.006;2023-05-06T05:06:28;1.48;;;0.75;;
25615;SDS011;13482;48.234;13.006;2023-05-06T05:08:57;1.90;;;1.10;;
25615;SDS011;13482;48.234;13.006;2023-05-06T05:11:25;1.83;;;0.93;;
25615;SDS011;13482;48.234;13.006;2023-05-06T05:13:52;1.30;;;0.90;;
25615;SDS011;13482;48.234;13.006;2023-05-06T05:16:22;1.88;;;1.10;;
25615;SDS011;13482;48.234;13.006;2023-05-06T05:18:49;2.50;;;0.98;;
25615;SDS011;13482;48.234;13.006;2023-05-06T05:21:16;1.27;;;0.90;;
25615;SDS011;13482;48.234;13.006;2023-05-06T05:23:44;1.75;;;1.20;;
25615;SDS011;13482;48.234;13.006;2023-05-06T05:26:11;1.65;;;1.15;;
25615;SDS011;13482;48.234;13.006;2023-05-06T05:28:38;1.33;;;1.00;;
25615;SDS011;13482;48.234;13.006;2023-05-06T05:31:05;2.88;;;1.20;;
25615;SDS011;13482;48.234;13.006;2023-05-06T05:33:35;2.35;;;1.08;;
25615;SDS011;13482;48.234;13.006;2023-05-06T05:36:03;1.88;;;1.15;;
25615;SDS011;13482;48.234;13.006;2023-05-06T05:38:30;1.27;;;0.90;;
25615;SDS011;13482;48.234;13.006;2023-05-06T05:40:57;1.40;;;0.88;;
25615;SDS011;13482;48.234;13.006;2023-05-06T05:43:25;2.13;;;1.27;;
25615;SDS011;13482;48.234;13.006;2023-05-06T05:45:52;1.50;;;1.10;;
25615;SDS011;13482;48.234;13.006;2023-05-06T05:48:19;1.95;;;1.10;;
25615;SDS011;13482;48.234;13.006;2023-05-06T05:50:46;1.10;;;0.85;;
25615;SDS011;13482;48.234;13.006;2023-05-06T05:53:13;1.40;;;0.95;;
25615;SDS011;13482;48.234;13.006;2023-05-06T05:55:41;1.50;;;0.93;;
25615;SDS011;13482;48.234;13.006;2023-05-06T05:58:08;2.65;;;1.02;;
25615;SDS011;13482;48.234;13.006;2023-05-06T06:00:36;1.10;;;0.82;;
25615;SDS011;13482;48.234;13.006;2023-05-06T06:03:03;1.40;;;0.93;;
25615;SDS011;13482;48.234;13.006;2023-05-06T06:05:31;1.73;;;1.00;;
25615;SDS011;13482;48.234;13.006;2023-05-06T06:07:58;1.98;;;1.00;;
25615;SDS011;13482;48.234;13.006;2023-05-06T06:10:29;2.13;;;1.00;;
25615;SDS011;13482;48.234;13.006;2023-05-06T06:12:56;1.33;;;0.90;;
25615;SDS011;13482;48.234;13.006;2023-05-06T06:15:23;3.25;;;1.08;;
25615;SDS011;13482;48.234;13.006;2023-05-06T06:17:52;1.70;;;1.00;;
25615;SDS011;13482;48.234;13.006;2023-05-06T06:20:20;1.90;;;1.00;;
25615;SDS011;13482;48.234;13.006;2023-05-06T06:22:47;1.27;;;0.90;;
25615;SDS011;13482;48.234;13.006;2023-05-06T06:25:14;1.27;;;0.95;;
25615;SDS011;13482;48.234;13.006;2023-05-06T06:27:41;1.67;;;1.10;;
25615;SDS011;13482;48.234;13.006;2023-05-06T06:30:08;1.77;;;1.15;;
25615;SDS011;13482;48.234;13.006;2023-05-06T06:32:39;2.67;;;1.20;;
25615;SDS011;13482;48.234;13.006;2023-05-06T06:35:14;2.42;;;1.20;;
25615;SDS011;13482;48.234;13.006;2023-05-06T06:37:41;1.63;;;1.02;;
25615;SDS011;13482;48.234;13.006;2023-05-06T06:40:09;1.42;;;1.02;;
25615;SDS011;13482;48.234;13.006;2023-05-06T06:42:37;1.13;;;0.80;;
25615;SDS011;13482;48.234;13.006;2023-05-06T06:45:05;1.85;;;1.00;;
25615;SDS011;13482;48.234;13.006;2023-05-06T06:47:34;1.70;;;1.10;;
25615;SDS011;13482;48.234;13.006;2023-05-06T06:50:01;1.73;;;1.00;;
25615;SDS011;13482;48.234;13.006;2023-05-06T06:52:29;1.95;;;1.50;;
25615;SDS011;13482;48.234;13.006;2023-05-06T06:54:56;2.42;;;1.45;;
25615;SDS011;13482;48.234;13.006;2023-05-06T06:57:23;2.90;;;1.80;;
25615;SDS011;13482;48.234;13.006;2023-05-06T06:59:50;2.05;;;1.55;;
25615;SDS011;13482;48.234;13.006;2023-05-06T07:02:19;2.05;;;1.38;;
25615;SDS011;13482;48.234;13.006;2023-05-06T07:04:47;1.70;;;1.20;;
25615;SDS011;13482;48.234;13.006;2023-05-06T07:07:14;2.10;;;1.55;;
25615;SDS011;13482;48.234;13.006;2023-05-06T07:09:41;2.17;;;1.30;;
25615;SDS011;13482;48.234;13.006;2023-05-06T07:12:09;2.60;;;1.30;;
25615;SDS011;13482;48.234;13.006;2023-05-06T07:14:37;1.45;;;1.23;;
25615;SDS011;13482;48.234;13.006;2023-05-06T07:17:04;4.60;;;1.70;;
25615;SDS011;13482;48.234;13.006;2023-05-06T07:19:31;2.75;;;1.70;;
25615;SDS011;13482;48.234;13.006;2023-05-06T07:21:59;2.03;;;1.27;;
25615;SDS011;13482;48.234;13.006;2023-05-06T07:24:28;2.47;;;1.60;;
25615;SDS011;13482;48.234;13.006;2023-05-06T07:26:55;1.95;;;1.45;;
25615;SDS011;13482;48.234;13.006;2023-05-06T07:29:23;2.92;;;1.60;;
25615;SDS011;13482;48.234;13.006;2023-05-06T07:31:50;2.67;;;1.90;;
25615;SDS011;13482;48.234;13.006;2023-05-06T07:34:18;2.38;;;1.77;;
25615;SDS011;13482;48.234;13.006;2023-05-06T07:36:45;3.47;;;1.95;;
25615;SDS011;13482;48.234;13.006;2023-05-06T07:39:13;2.22;;;1.73;;
25615;SDS011;13482;48.234;13.006;2023-05-06T07:41:41;2.50;;;1.80;;
25615;SDS011;13482;48.234;13.006;2023-05-06T07:44:08;2.35;;;1.65;;
25615;SDS011;13482;48.234;13.006;2023-05-06T07:46:35;2.50;;;1.65;;
25615;SDS011;13482;48.234;13.006;2023-05-06T07:49:02;2.05;;;1.65;;
25615;SDS011;13482;48.234;13.006;2023-05-06T07:51:29;2.97;;;1.88;;
25615;SDS011;13482;48.234;13.006;2023-05-06T07:53:57;2.20;;;1.70;;
25615;SDS011;13482;48.234;13.006;2023-05-06T07:56:24;2.35;;;1.60;;
25615;SDS011;13482;48.234;13.006;2023-05-06T07:58:51;2.80;;;1.75;;
25615;SDS011;13482;48.234;13.006;2023-05-06T08:01:18;2.97;;;2.00;;
25615;SDS011;13482;48.234;13.006;2023-05-06T08:03:45;2.83;;;1.90;;
25615;SDS011;13482;48.234;13.006;2023-05-06T08:06:12;2.53;;;1.70;;
25615;SDS011;13482;48.234;13.006;2023-05-06T08:08:40;3.58;;;2.00;;
25615;SDS011;13482;48.234;13.006;2023-05-06T08:11:07;2.00;;;1.48;;
25615;SDS011;13482;48.234;13.006;2023-05-06T08:13:34;4.43;;;2.40;;
25615;SDS011;13482;48.234;13.006;2023-05-06T08:16:01;2.70;;;1.77;;
25615;SDS011;13482;48.234;13.006;2023-05-06T08:18:28;3.13;;;2.40;;
25615;SDS011;13482;48.234;13.006;2023-05-06T08:20:57;3.22;;;2.20;;
25615;SDS011;13482;48.234;13.006;2023-05-06T08:23:25;2.67;;;1.83;;
25615;SDS011;13482;48.234;13.006;2023-05-06T08:25:52;3.33;;;1.90;;
25615;SDS011;13482;48.234;13.006;2023-05-06T08:28:19;2.22;;;1.65;;
25615;SDS011;13482;48.234;13.006;2023-05-06T08:30:48;2.28;;;1.75;;
25615;SDS011;13482;48.234;13.006;2023-05-06T08:33:17;2.88;;;2.08;;
25615;SDS011;13482;48.234;13.006;2023-05-06T08:35:45;2.20;;;1.67;;
25615;SDS011;13482;48.234;13.006;2023-05-06T08:38:13;2.80;;;1.90;;
25615;SDS011;13482;48.234;13.006;2023-05-06T08:40:43;2.10;;;1.50;;
25615;SDS011;13482;48.234;13.006;2023-05-06T08:43:11;4.07;;;2.08;;
25615;SDS011;13482;48.234;13.006;2023-05-06T08:45:40;2.75;;;1.90;;
25615;SDS011;13482;48.234;13.006;2023-05-06T08:48:07;2.55;;;1.60;;
25615;SDS011;13482;48.234;13.006;2023-05-06T08:50:36;3.22;;;2.10;;
25615;SDS011;13482;48.234;13.006;2023-05-06T08:53:12;2.30;;;1.80;;
25615;SDS011;13482;48.234;13.006;2023-05-06T08:55:39;2.23;;;1.23;;
25615;SDS011;13482;48.234;13.006;2023-05-06T08:58:09;2.78;;;1.80;;
25615;SDS011;13482;48.234;13.006;2023-05-06T09:00:41;2.28;;;1.63;;
25615;SDS011;13482;48.234;13.006;2023-05-06T09:03:08;2.72;;;1.60;;
25615;SDS011;13482;48.234;13.006;2023-05-06T09:05:36;2.10;;;1.52;;
25615;SDS011;13482;48.234;13.006;2023-05-06T09:08:03;2.10;;;1.42;;
25615;SDS011;13482;48.234;13.006;2023-05-06T09:10:31;1.70;;;1.30;;
25615;SDS011;13482;48.234;13.006;2023-05-06T09:13:12;2.13;;;1.50;;
25615;SDS011;13482;48.234;13.006;2023-05-06T09:15:42;2.03;;;1.48;;
25615;SDS011;13482;48.234;13.006;2023-05-06T09:18:15;2.72;;;1.30;;
25615;SDS011;13482;48.234;13.006;2023-05-06T09:20:46;1.88;;;1.45;;
25615;SDS011;13482;48.234;13.006;2023-05-06T09:23:15;2.72;;;1.83;;
25615;SDS011;13482;48.234;13.006;2023-05-06T09:25:44;2.38;;;1.73;;
25615;SDS011;13482;48.234;13.006;2023-05-06T09:28:15;2.17;;;1.73;;
25615;SDS011;13482;48.234;13.006;2023-05-06T09:30:43;2.15;;;1.65;;
25615;SDS011;13482;48.234;13.006;2023-05-06T09:33:13;2.20;;;1.70;;
25615;SDS011;13482;48.234;13.006;2023-05-06T09:35:41;2.00;;;1.55;;
25615;SDS011;13482;48.234;13.006;2023-05-06T09:38:09;2.00;;;1.60;;
25615;SDS011;13482;48.234;13.006;2023-05-06T09:40:37;1.60;;;1.30;;
25615;SDS011;13482;48.234;13.006;2023-05-06T09:43:04;1.73;;;1.38;;
25615;SDS011;13482;48.234;13.006;2023-05-06T09:45:32;1.83;;;1.38;;
25615;SDS011;13482;48.234;13.006;2023-05-06T09:47:59;1.90;;;1.50;;
25615;SDS011;13482;48.234;13.006;2023-05-06T09:50:26;1.90;;;1.33;;
25615;SDS011;13482;48.234;13.006;2023-05-06T09:52:54;2.53;;;1.40;;
25615;SDS011;13482;48.234;13.006;2023-05-06T09:55:22;1.73;;;1.40;;
25615;SDS011;13482;48.234;13.006;2023-05-06T09:57:52;2.03;;;1.40;;
25615;SDS011;13482;48.234;13.006;2023-05-06T10:00:20;2.17;;;1.50;;
25615;SDS011;13482;48.234;13.006;2023-05-06T10:02:53;2.33;;;1.25;;
25615;SDS011;13482;48.234;13.006;2023-05-06T10:05:21;1.88;;;1.48;;
25615;SDS011;13482;48.234;13.006;2023-05-06T10:07:51;1.98;;;1.40;;
25615;SDS011;13482;48.234;13.006;2023-05-06T10:10:20;1.88;;;1.20;;
25615;SDS011;13482;48.234;13.006;2023-05-06T10:12:50;1.83;;;1.33;;
25615;SDS011;13482;48.234;13.006;2023-05-06T10:15:18;2.00;;;1.40;;
25615;SDS011;13482;48.234;13.006;2023-05-06T10:17:45;1.88;;;1.20;;
25615;SDS011;13482;48.234;13.006;2023-05-06T10:20:14;2.60;;;1.75;;
25615;SDS011;13482;48.234;13.006;2023-05-06T10:28:05;4.13;;;2.17;;
25615;SDS011;13482;48.234;13.006;2023-05-06T10:30:42;1.83;;;1.48;;
25615;SDS011;13482;48.234;13.006;2023-05-06T10:33:10;2.50;;;1.52;;
25615;SDS011;13482;48.234;13.006;2023-05-06T10:38:08;1.55;;;1.17;;
25615;SDS011;13482;48.234;13.006;2023-05-06T10:40:42;1.25;;;1.02;;
25615;SDS011;13482;48.234;13.006;2023-05-06T10:46:03;2.88;;;0.90;;
25615;SDS011;13482;48.234;13.006;2023-05-06T10:51:29;1.50;;;1.15;;
25615;SDS011;13482;48.234;13.006;2023-05-06T10:54:11;2.00;;;1.10;;
25615;SDS011;13482;48.234;13.006;2023-05-06T10:59:25;1.00;;;0.90;;
25615;SDS011;13482;48.234;13.006;2023-05-06T11:01:56;2.85;;;1.23;;
25615;SDS011;13482;48.234;13.006;2023-05-06T11:04:34;1.95;;;0.98;;
25615;SDS011;13482;48.234;13.006;2023-05-06T11:07:06;1.60;;;1.10;;
25615;SDS011;13482;48.234;13.006;2023-05-06T11:15:25;1.00;;;0.80;;
25615;SDS011;13482;48.234;13.006;2023-05-06T11:18:50;2.47;;;1.10;;
25615;SDS011;13482;48.234;13.006;2023-05-06T11:26:19;1.75;;;0.80;;
25615;SDS011;13482;48.234;13.006;2023-05-06T11:28:48;1.70;;;0.90;;
25615;SDS011;13482;48.234;13.006;2023-05-06T11:31:16;1.80;;;0.90;;
25615;SDS011;13482;48.234;13.006;2023-05-06T11:33:47;1.27;;;0.90;;
25615;SDS011;13482;48.234;13.006;2023-05-06T11:36:17;1.65;;;0.90;;
25615;SDS011;13482;48.234;13.006;2023-05-06T11:38:46;1.92;;;0.90;;
25615;SDS011;13482;48.234;13.006;2023-05-06T11:41:16;1.47;;;0.70;;
25615;SDS011;13482;48.234;13.006;2023-05-06T11:43:48;1.58;;;0.93;;
25615;SDS011;13482;48.234;13.006;2023-05-06T11:46:17;1.25;;;0.80;;
25615;SDS011;13482;48.234;13.006;2023-05-06T11:48:46;1.92;;;0.77;;
25615;SDS011;13482;48.234;13.006;2023-05-06T11:51:14;2.22;;;0.82;;
25615;SDS011;13482;48.234;13.006;2023-05-06T11:53:46;1.33;;;0.80;;
25615;SDS011;13482;48.234;13.006;2023-05-06T11:56:13;1.40;;;0.70;;
25615;SDS011;13482;48.234;13.006;2023-05-06T11:58:41;0.80;;;0.70;;
25615;SDS011;13482;48.234;13.006;2023-05-06T12:01:09;1.20;;;0.80;;
25615;SDS011;13482;48.234;13.006;2023-05-06T12:03:36;1.92;;;0.80;;
25615;SDS011;13482;48.234;13.006;2023-05-06T12:06:03;1.50;;;0.73;;
25615;SDS011;13482;48.234;13.006;2023-05-06T12:08:31;0.88;;;0.73;;
25615;SDS011;13482;48.234;13.006;2023-05-06T12:11:03;0.93;;;0.57;;
25615;SDS011;13482;48.234;13.006;2023-05-06T12:13:34;2.00;;;0.75;;
25615;SDS011;13482;48.234;13.006;2023-05-06T12:16:03;2.22;;;1.00;;
25615;SDS011;13482;48.234;13.006;2023-05-06T12:18:33;1.27;;;0.73;;
25615;SDS011;13482;48.234;13.006;2023-05-06T12:21:01;1.00;;;0.60;;
25615;SDS011;13482;48.234;13.006;2023-05-06T12:23:29;1.67;;;0.70;;
25615;SDS011;13482;48.234;13.006;2023-05-06T12:26:03;1.17;;;0.70;;
25615;SDS011;13482;48.234;13.006;2023-05-06T12:28:35;0.65;;;0.52;;
25615;SDS011;13482;48.234;13.006;2023-05-06T12:31:21;1.73;;;0.73;;
25615;SDS011;13482;48.234;13.006;2023-05-06T12:33:49;0.90;;;0.45;;
25615;SDS011;13482;48.234;13.006;2023-05-06T12:36:17;0.52;;;0.30;;
25615;SDS011;13482;48.234;13.006;2023-05-06T12:38:54;1.35;;;0.60;;
25615;SDS011;13482;48.234;13.006;2023-05-06T12:47:04;1.17;;;0.45;;
25615;SDS011;13482;48.234;13.006;2023-05-06T12:52:17;1.20;;;0.50;;
25615;SDS011;13482;48.234;13.006;2023-05-06T12:54:47;0.82;;;0.60;;
25615;SDS011;13482;48.234;13.006;2023-05-06T12:57:14;1.23;;;0.60;;
25615;SDS011;13482;48.234;13.006;2023-05-06T12:59:42;1.35;;;0.65;;
25615;SDS011;13482;48.234;13.006;2023-05-06T13:02:13;0.88;;;0.45;;
25615;SDS011;13482;48.234;13.006;2023-05-06T13:04:41;0.65;;;0.45;;
25615;SDS011;13482;48.234;13.006;2023-05-06T13:07:09;1.10;;;0.55;;
25615;SDS011;13482;48.234;13.006;2023-05-06T13:09:37;1.33;;;0.60;;
25615;SDS011;13482;48.234;13.006;2023-05-06T13:12:04;1.02;;;0.60;;
25615;SDS011;13482;48.234;13.006;2023-05-06T13:14:32;1.90;;;0.50;;
25615;SDS011;13482;48.234;13.006;2023-05-06T13:17:01;3.85;;;1.30;;
25615;SDS011;13482;48.234;13.006;2023-05-06T13:19:32;1.80;;;0.88;;
25615;SDS011;13482;48.234;13.006;2023-05-06T13:21:59;0.75;;;0.60;;
25615;SDS011;13482;48.234;13.006;2023-05-06T13:24:27;1.35;;;0.73;;
25615;SDS011;13482;48.234;13.006;2023-05-06T13:26:55;1.60;;;0.65;;
25615;SDS011;13482;48.234;13.006;2023-05-06T13:29:22;0.90;;;0.70;;
25615;SDS011;13482;48.234;13.006;2023-05-06T13:31:50;1.58;;;0.60;;
25615;SDS011;13482;48.234;13.006;2023-05-06T13:34:17;1.30;;;0.73;;
25615;SDS011;13482;48.234;13.006;2023-05-06T13:36:45;1.38;;;0.55;;
25615;SDS011;13482;48.234;13.006;2023-05-06T13:39:14;1.30;;;0.70;;
25615;SDS011;13482;48.234;13.006;2023-05-06T13:41:44;1.10;;;0.60;;
25615;SDS011;13482;48.234;13.006;2023-05-06T13:44:13;1.50;;;0.80;;
25615;SDS011;13482;48.234;13.006;2023-05-06T13:46:41;1.70;;;0.60;;
25615;SDS011;13482;48.234;13.006;2023-05-06T13:49:11;2.30;;;0.95;;
25615;SDS011;13482;48.234;13.006;2023-05-06T13:51:42;0.90;;;0.52;;
25615;SDS011;13482;48.234;13.006;2023-05-06T13:54:09;1.75;;;0.80;;
25615;SDS011;13482;48.234;13.006;2023-05-06T13:56:36;1.80;;;0.70;;
25615;SDS011;13482;48.234;13.006;2023-05-06T13:59:03;0.88;;;0.55;;
25615;SDS011;13482;48.234;13.006;2023-05-06T14:01:31;1.23;;;0.80;;
25615;SDS011;13482;48.234;13.006;2023-05-06T14:03:58;1.40;;;0.77;;
25615;SDS011;13482;48.234;13.006;2023-05-06T14:06:25;0.93;;;0.60;;
25615;SDS011;13482;48.234;13.006;2023-05-06T14:08:53;1.00;;;0.40;;
25615;SDS011;13482;48.234;13.006;2023-05-06T14:11:21;0.68;;;0.40;;
25615;SDS011;13482;48.234;13.006;2023-05-06T14:13:48;0.52;;;0.32;;
25615;SDS011;13482;48.234;13.006;2023-05-06T14:16:15;0.88;;;0.43;;
25615;SDS011;13482;48.234;13.006;2023-05-06T14:18:42;0.70;;;0.40;;
25615;SDS011;13482;48.234;13.006;2023-05-06T14:21:09;0.65;;;0.60;;
25615;SDS011;13482;48.234;13.006;2023-05-06T14:23:36;0.75;;;0.35;;
25615;SDS011;13482;48.234;13.006;2023-05-06T14:26:04;1.08;;;0.52;;
25615;SDS011;13482;48.234;13.006;2023-05-06T14:28:31;0.82;;;0.47;;
25615;SDS011;13482;48.234;13.006;2023-05-06T14:30:58;0.45;;;0.30;;
25615;SDS011;13482;48.234;13.006;2023-05-06T14:33:25;1.05;;;0.60;;
25615;SDS011;13482;48.234;13.006;2023-05-06T14:35:52;1.15;;;0.55;;
25615;SDS011;13482;48.234;13.006;2023-05-06T14:38:19;0.60;;;0.50;;
25615;SDS011;13482;48.234;13.006;2023-05-06T14:40:46;0.60;;;0.40;;
25615;SDS011;13482;48.234;13.006;2023-05-06T14:43:13;1.02;;;0.35;;
25615;SDS011;13482;48.234;13.006;2023-05-06T14:45:41;2.67;;;0.68;;
25615;SDS011;13482;48.234;13.006;2023-05-06T14:48:08;0.77;;;0.43;;
25615;SDS011;13482;48.234;13.006;2023-05-06T14:50:35;0.50;;;0.30;;
25615;SDS011;13482;48.234;13.006;2023-05-06T14:53:03;1.20;;;0.60;;
25615;SDS011;13482;48.234;13.006;2023-05-06T14:55:30;1.25;;;0.70;;
25615;SDS011;13482;48.234;13.006;2023-05-06T14:57:57;1.13;;;0.45;;
25615;SDS011;13482;48.234;13.006;2023-05-06T15:00:24;0.82;;;0.50;;
25615;SDS011;13482;48.234;13.006;2023-05-06T15:02:51;1.35;;;0.63;;
25615;SDS011;13482;48.234;13.006;2023-05-06T15:05:18;1.17;;;0.47;;
25615;SDS011;13482;48.234;13.006;2023-05-06T15:07:46;0.95;;;0.40;;
25615;SDS011;13482;48.234;13.006;2023-05-06T15:10:13;0.88;;;0.38;;
25615;SDS011;13482;48.234;13.006;2023-05-06T15:12:40;3.15;;;0.70;;
25615;SDS011;13482;48.234;13.006;2023-05-06T15:15:08;0.98;;;0.60;;
25615;SDS011;13482;48.234;13.006;2023-05-06T15:17:35;3.63;;;0.63;;
25615;SDS011;13482;48.234;13.006;2023-05-06T15:20:05;4.55;;;0.93;;
25615;SDS011;13482;48.234;13.006;2023-05-06T15:22:33;5.93;;;0.90;;
25615;SDS011;13482;48.234;13.006;2023-05-06T15:25:04;3.53;;;0.50;;
25615;SDS011;13482;48.234;13.006;2023-05-06T15:27:37;1.02;;;0.40;;
25615;SDS011;13482;48.234;13.006;2023-05-06T15:30:04;1.83;;;0.52;;